CET,Max TemperatureF,Mean TemperatureF,Min TemperatureF,Max Dew PointF,MeanDew PointF,Min DewpointF,Max Humidity, Mean Humidity, Min Humidity, Max Sea Level PressureIn, Mean Sea Level PressureIn, Min Sea Level PressureIn, Max VisibilityMiles, Mean VisibilityMiles, Min VisibilityMiles, Max Wind SpeedMPH, Mean Wind SpeedMPH, Max Gust SpeedMPH,PrecipitationIn, CloudCover, Events, WindDirDegrees
2012-10-1,68,56,44,48,44,41,87,67,43,30.12,30.06,30.01,6,6,6,13,5,25,0.00,6,,194
2012-10-2,66,60,55,55,50,45,94,71,46,30.04,30.01,29.98,6,6,2,17,11,29,0.00,6,Rain,210
2012-10-3,62,60,57,55,52,48,94,78,67,29.98,29.90,29.86,6,6,4,20,15,31,0.00,6,Rain,211
2012-10-4,62,58,53,54,49,39,94,74,42,29.98,29.87,29.71,6,6,4,20,14,29,0.00,5,Rain,232
2012-10-5,69,62,55,57,55,48,88,75,56,29.95,29.92,29.89,6,6,6,23,14,,0.00,6,,210
2012-10-6,64,60,57,59,55,50,94,83,68,29.95,29.91,29.83,6,4,2,16,12,25,0.00,6,Rain,206
2012-10-7,59,54,50,55,47,43,94,77,55,30.21,30.10,29.92,6,5,2,15,10,28,0.00,6,Rain,42
2012-10-8,62,56,50,61,51,43,100,88,72,30.18,30.01,29.86,6,3,1,12,8,24,0.00,6,Rain,143
2012-10-9,62,58,53,61,55,52,100,91,88,30.01,29.94,29.86,6,4,2,9,7,,0.00,6,Rain,4
2012-10-10,57,54,51,54,51,50,100,90,77,29.95,29.93,29.92,6,3,1,13,7,,0.00,6,Rain,61
2012-10-11,64,60,55,59,56,52,94,91,77,29.89,29.74,29.65,6,4,0,13,7,,0.00,6,Fog-Rain,146
2012-10-12,60,54,48,59,48,36,94,77,42,29.95,29.82,29.65,6,6,6,21,11,,0.00,5,Rain,253
2012-10-13,51,48,46,50,46,45,94,86,76,29.95,29.81,29.71,6,6,2,17,11,,0.00,5,Rain,207
2012-10-14,48,45,42,46,43,41,100,92,87,29.74,29.58,29.47,6,4,0,12,7,23,0.00,6,Fog-Rain,86
2012-10-15,57,49,41,45,41,39,93,75,51,29.80,29.74,29.59,6,6,6,17,9,,0.00,4,Rain,226
2012-10-16,59,54,48,50,45,43,94,78,55,29.80,29.75,29.65,6,6,2,17,13,,0.00,4,Rain,201
2012-10-17,59,54,48,55,50,45,94,85,72,29.80,29.68,29.62,6,6,2,15,11,29,0.00,6,Rain,167
2012-10-18,68,62,55,59,55,50,94,78,60,29.71,29.68,29.62,6,6,2,15,8,25,0.00,6,Rain,152
2012-10-19,64,62,59,57,55,52,88,77,64,29.86,29.79,29.74,6,6,6,12,6,24,0.00,6,Rain,131
2012-10-20,60,58,57,57,57,55,100,93,88,30.06,29.98,29.89,6,4,2,13,7,,0.00,6,Rain,21
2012-10-21,73,64,55,61,58,54,100,87,61,29.98,29.94,29.92,6,2,0,14,9,24,0.00,6,Fog-Rain,45
2012-10-22,75,67,59,59,58,54,94,77,57,30.15,30.06,29.98,,,,9,6,,0.00,,,111
2012-10-23,68,62,53,59,54,48,100,84,60,30.18,30.15,30.12,6,2,0,9,5,16,0.00,4,Fog,19
2012-10-24,53,50,46,48,46,43,94,87,82,30.15,30.07,30.01,6,3,1,12,7,,0.00,7,Fog,79
2012-10-25,62,53,44,50,47,43,94,83,59,30.01,29.92,29.83,6,3,0,12,8,,0.00,4,Fog,67
2012-10-26,53,47,41,52,45,36,94,86,76,29.83,29.69,29.59,6,5,2,21,14,34,0.00,7,Rain,37
2012-10-27,46,40,33,36,31,25,93,76,53,29.98,29.76,29.59,6,6,6,22,16,28,0.00,4,Rain,354
2012-10-28,50,41,32,36,32,30,93,75,47,30.06,30.03,30.01,6,6,6,12,7,20,0.00,3,Rain,325
2012-10-29,51,46,42,41,40,37,93,79,62,30.01,29.94,29.86,6,5,2,13,10,23,0.00,6,Rain,207
2012-10-30,51,46,41,45,41,37,87,79,71,29.83,29.72,29.62,6,6,4,12,9,,0.00,6,Rain,217
2012-10-31,55,46,37,41,38,32,87,72,47,29.62,29.45,29.24,6,6,6,14,8,24,0.00,5,,169